createdAt,value
2023-05-23T00:01:24.935Z,102672.47
2023-05-23T00:03:56.902Z,102677.75
2023-05-23T00:06:25.108Z,102681.81
2023-05-23T00:08:53.242Z,102684.16
2023-05-23T00:11:26.881Z,102690.13
2023-05-23T00:13:55.201Z,102690.88
2023-05-23T00:16:25.996Z,102692.47
2023-05-23T00:18:54.042Z,102698.09
2023-05-23T00:21:22.288Z,102686.78
2023-05-23T00:23:50.519Z,102700.78
2023-05-23T00:26:19.767Z,102703.13
2023-05-23T00:28:48.094Z,102694.66
2023-05-23T00:31:16.141Z,102696.72
2023-05-23T00:33:45.532Z,102700.50
2023-05-23T00:36:13.517Z,102701.47
2023-05-23T00:38:41.518Z,102701.69
2023-05-23T00:41:09.801Z,102702.69
2023-05-23T00:43:37.919Z,102695.91
2023-05-23T00:46:06.056Z,102698.81
2023-05-23T00:48:34.250Z,102699.91
2023-05-23T00:51:06.803Z,102691.69
2023-05-23T00:53:35.948Z,102701.50
2023-05-23T00:56:04.103Z,102704.78
2023-05-23T00:58:32.454Z,102693.75
2023-05-23T01:01:00.482Z,102700.31
2023-05-23T01:03:30.275Z,102694.22
2023-05-23T01:05:58.665Z,102688.13
2023-05-23T01:08:28.006Z,102692.88
2023-05-23T01:10:56.230Z,102686.94
2023-05-23T01:13:29.743Z,102691.91
2023-05-23T01:16:02.716Z,102707.31
2023-05-23T01:18:34.557Z,102698.84
2023-05-23T01:21:04.873Z,102702.69
2023-05-23T01:23:56.943Z,102687.66
2023-05-23T01:26:35.072Z,102700.03
2023-05-23T01:31:39.142Z,102707.66
2023-05-23T01:34:07.518Z,102698.59
2023-05-23T01:36:36.472Z,102698.44
2023-05-23T01:41:33.156Z,102707.56
2023-05-23T01:44:02.385Z,102716.63
2023-05-23T01:46:33.053Z,102719.88
2023-05-23T01:49:02.390Z,102731.25
2023-05-23T01:51:30.622Z,102734.53
2023-05-23T01:53:59.687Z,102724.09
2023-05-23T01:56:28.862Z,102723.13
2023-05-23T01:58:56.857Z,102726.66
2023-05-23T02:01:24.939Z,102730.03
2023-05-23T02:03:54.414Z,102737.53
2023-05-23T02:06:24.525Z,102741.91
2023-05-23T02:08:52.642Z,102736.09
2023-05-23T02:11:20.631Z,102732.66
2023-05-23T02:13:48.690Z,102729.25
2023-05-23T02:16:19.015Z,102741.53
2023-05-23T02:18:47.436Z,102742.66
2023-05-23T02:21:19.058Z,102736.84
2023-05-23T02:23:47.752Z,102735.41
2023-05-23T02:26:19.225Z,102735.28
2023-05-23T02:28:49.075Z,102735.16
2023-05-23T02:31:17.412Z,102730.56
2023-05-23T02:33:48.160Z,102734.06
2023-05-23T02:36:17.710Z,102742.06
2023-05-23T02:38:45.743Z,102735.66
2023-05-23T02:41:13.783Z,102742.97
2023-05-23T02:43:41.783Z,102734.97
2023-05-23T02:46:09.917Z,102734.59
2023-05-23T02:48:38.203Z,102730.00
2023-05-23T02:51:07.160Z,102729.63
2023-05-23T02:53:36.569Z,102740.53
2023-05-23T02:56:05.082Z,102732.53
2023-05-23T02:58:35.558Z,102741.75
2023-05-23T03:01:07.100Z,102743.09
2023-05-23T03:03:36.597Z,102745.63
2023-05-23T03:06:06.341Z,102743.69
2023-05-23T03:08:36.048Z,102744.31
2023-05-23T03:11:04.299Z,102737.25
2023-05-23T03:13:32.601Z,102732.53
2023-05-23T03:16:00.821Z,102726.94
2023-05-23T03:18:29.321Z,102737.38
2023-05-23T03:20:57.643Z,102730.94
2023-05-23T03:23:25.614Z,102731.78
2023-05-23T03:25:54.976Z,102730.81
2023-05-23T03:28:23.083Z,102732.75
2023-05-23T03:30:52.926Z,102729.47
2023-05-23T03:33:21.254Z,102724.38
2023-05-23T03:35:49.846Z,102724.00
2023-05-23T03:38:17.942Z,102728.09
2023-05-23T03:40:46.066Z,102725.16
2023-05-23T03:43:15.967Z,102728.75
2023-05-23T03:45:45.703Z,102735.59
2023-05-23T03:48:16.054Z,102731.34
2023-05-23T03:50:44.108Z,102733.16
2023-05-23T03:53:13.111Z,102741.78
2023-05-23T03:55:41.471Z,102733.66
2023-05-23T03:58:12.802Z,102738.88
2023-05-23T04:00:44.922Z,102740.84
2023-05-23T04:03:15.321Z,102740.94
2023-05-23T04:05:43.543Z,102746.16
2023-05-23T04:08:11.863Z,102749.53
2023-05-23T04:10:40.241Z,102754.16
2023-05-23T04:13:09.704Z,102750.00
2023-05-23T04:15:39.905Z,102744.25
2023-05-23T04:18:16.109Z,102750.13
2023-05-23T04:20:44.948Z,102747.81
2023-05-23T04:23:14.073Z,102755.91
2023-05-23T04:25:44.522Z,102756.97
2023-05-23T04:28:33.036Z,102756.13
2023-05-23T04:31:02.888Z,102763.16
2023-05-23T04:33:35.705Z,102767.03
2023-05-23T04:36:04.940Z,102771.59
2023-05-23T04:38:33.425Z,102764.56
2023-05-23T04:41:02.223Z,102761.06
2023-05-23T04:44:00.533Z,102770.25
2023-05-23T04:46:33.860Z,102779.81
2023-05-23T04:49:11.570Z,102763.72
2023-05-23T04:51:39.740Z,102775.13
2023-05-23T04:54:17.270Z,102778.19
2023-05-23T04:56:45.671Z,102779.03
2023-05-23T04:59:13.747Z,102771.81
2023-05-23T05:01:41.879Z,102780.41
2023-05-23T05:04:12.427Z,102774.00
2023-05-23T05:06:41.884Z,102781.66
2023-05-23T05:09:10.716Z,102782.63
2023-05-23T05:11:38.734Z,102781.91
2023-05-23T05:14:07.590Z,102789.53
2023-05-23T05:16:37.931Z,102781.22
2023-05-23T05:19:06.462Z,102756.81
2023-05-23T05:21:37.059Z,102779.69
2023-05-23T05:24:05.391Z,102782.03
2023-05-23T05:26:33.572Z,102796.72
2023-05-23T05:29:01.768Z,102794.66
2023-05-23T05:31:30.222Z,102793.50
2023-05-23T05:33:58.272Z,102798.56
2023-05-23T05:36:26.514Z,102793.03
2023-05-23T05:38:56.405Z,102797.41
2023-05-23T05:41:24.576Z,102798.84
2023-05-23T05:43:54.802Z,102792.34
2023-05-23T05:46:22.839Z,102800.59
2023-05-23T05:48:52.102Z,102811.69
2023-05-23T05:51:20.831Z,102796.28
2023-05-23T05:53:50.633Z,102799.44
2023-05-23T05:56:26.227Z,102796.31
2023-05-23T05:58:54.666Z,102795.59
2023-05-23T06:01:23.494Z,102799.50
2023-05-23T06:03:51.703Z,102799.63
2023-05-23T06:06:20.892Z,102792.88
2023-05-23T06:08:49.486Z,102785.13
2023-05-23T06:11:18.461Z,102791.81
2023-05-23T06:13:48.107Z,102787.69
2023-05-23T06:16:16.243Z,102791.56
2023-05-23T06:18:46.308Z,102794.00
2023-05-23T06:21:14.899Z,102787.06
2023-05-23T06:23:42.990Z,102790.81
2023-05-23T06:26:11.084Z,102793.03
2023-05-23T06:28:39.871Z,102787.44
2023-05-23T06:31:10.980Z,102780.66
2023-05-23T06:33:39.751Z,102782.56
2023-05-23T06:36:08.304Z,102790.59
2023-05-23T06:38:36.278Z,102787.69
2023-05-23T06:41:07.077Z,102791.78
2023-05-23T06:43:36.252Z,102781.34
2023-05-23T06:46:17.098Z,102789.59
2023-05-23T06:48:45.679Z,102786.31
2023-05-23T06:51:13.784Z,102784.94
2023-05-23T06:53:43.235Z,102786.41
2023-05-23T06:56:11.537Z,102786.38
2023-05-23T06:58:52.783Z,102785.16
2023-05-23T07:01:22.492Z,102786.78
2023-05-23T07:03:52.009Z,102782.63
2023-05-23T07:06:21.144Z,102788.47
2023-05-23T07:08:49.303Z,102786.44
2023-05-23T07:11:18.576Z,102786.84
2023-05-23T07:13:53.341Z,102787.22
2023-05-23T07:16:32.742Z,102795.97
2023-05-23T07:19:07.607Z,102796.41
2023-05-23T07:21:47.019Z,102796.84
2023-05-23T07:24:19.947Z,102799.91
2023-05-23T07:26:48.936Z,102795.56
2023-05-23T07:29:16.934Z,102800.03
2023-05-23T07:31:48.493Z,102797.81
2023-05-23T07:34:16.706Z,102800.69
2023-05-23T07:36:57.802Z,102801.31
2023-05-23T07:39:28.293Z,102810.81
2023-05-23T07:42:01.625Z,102801.13
2023-05-23T07:44:29.849Z,102799.03
2023-05-23T07:47:00.989Z,102805.63
2023-05-23T07:49:30.164Z,102804.94
2023-05-23T07:51:59.016Z,102810.44
2023-05-23T07:54:27.784Z,102808.72
2023-05-23T07:56:59.861Z,102810.13
2023-05-23T07:59:30.780Z,102809.28
2023-05-23T08:02:10.915Z,102805.63
2023-05-23T08:04:40.414Z,102807.31
2023-05-23T08:07:09.817Z,102810.59
2023-05-23T08:09:46.795Z,102812.78
2023-05-23T08:12:19.168Z,102802.78
2023-05-23T08:14:52.055Z,102798.16
2023-05-23T08:17:35.118Z,102798.47
2023-05-23T08:20:05.209Z,102795.09
2023-05-23T08:22:33.494Z,102798.19
2023-05-23T08:25:03.107Z,102804.97
2023-05-23T08:27:34.146Z,102799.19
2023-05-23T08:30:09.822Z,102808.69
2023-05-23T08:32:40.291Z,102797.31
2023-05-23T08:35:09.799Z,102803.56
2023-05-23T08:37:39.100Z,102806.25
2023-05-23T08:40:09.804Z,102806.06
2023-05-23T08:42:43.602Z,102809.41
2023-05-23T08:45:13.611Z,102798.63
2023-05-23T08:47:48.506Z,102804.81
2023-05-23T08:50:22.902Z,102799.13
2023-05-23T08:52:57.279Z,102793.16
2023-05-23T08:55:29.382Z,102800.38
2023-05-23T08:58:00.821Z,102800.22
2023-05-23T09:00:47.841Z,102794.41
2023-05-23T09:03:21.400Z,102798.34
2023-05-23T09:05:58.971Z,102802.44
2023-05-23T09:08:28.614Z,102811.38
2023-05-23T09:11:02.784Z,102815.22
2023-05-23T09:13:32.961Z,102813.53
2023-05-23T09:16:04.537Z,102812.53
2023-05-23T09:18:40.716Z,102812.34
2023-05-23T09:21:09.753Z,102819.84
2023-05-23T09:23:42.220Z,102818.56
2023-05-23T09:26:13.332Z,102808.25
2023-05-23T09:28:43.888Z,102803.78
2023-05-23T09:31:12.613Z,102805.34
2023-05-23T09:33:44.619Z,102794.97
2023-05-23T09:36:12.875Z,102800.84
2023-05-23T09:38:41.091Z,102794.94
2023-05-23T09:41:12.377Z,102808.38
2023-05-23T09:43:42.946Z,102804.19
2023-05-23T09:46:12.147Z,102802.06
2023-05-23T09:48:40.154Z,102800.84
2023-05-23T09:51:12.514Z,102800.50
2023-05-23T09:53:40.742Z,102801.06
2023-05-23T09:56:11.552Z,102800.22
2023-05-23T09:58:40.085Z,102796.34
2023-05-23T10:01:08.653Z,102794.38
2023-05-23T10:03:40.186Z,102802.25
2023-05-23T10:06:12.174Z,102795.31
2023-05-23T10:08:43.304Z,102794.69
2023-05-23T10:11:50.653Z,102800.84
2023-05-23T10:14:18.733Z,102801.69
2023-05-23T10:16:53.211Z,102788.84
2023-05-23T10:19:25.551Z,102788.16
2023-05-23T10:22:03.037Z,102783.72
2023-05-23T10:24:33.500Z,102777.84
2023-05-23T10:27:02.552Z,102775.88
2023-05-23T10:29:31.374Z,102773.19
2023-05-23T10:32:00.394Z,102770.16
2023-05-23T10:34:33.028Z,102779.94
2023-05-23T10:37:04.303Z,102773.09
2023-05-23T10:39:46.082Z,102769.63
2023-05-23T10:42:18.941Z,102776.13
2023-05-23T10:44:48.317Z,102771.16
2023-05-23T10:47:20.151Z,102777.00
2023-05-23T10:49:48.773Z,102784.53
2023-05-23T10:52:18.952Z,102787.72
2023-05-23T10:54:48.977Z,102770.19
2023-05-23T10:57:18.658Z,102778.44
2023-05-23T10:59:49.496Z,102782.13
2023-05-23T11:02:18.329Z,102781.06
2023-05-23T11:04:53.930Z,102785.09
2023-05-23T11:07:37.301Z,102785.81
2023-05-23T11:10:12.644Z,102774.53
2023-05-23T11:12:45.051Z,102795.25
2023-05-23T11:15:23.382Z,102781.19
2023-05-23T11:17:52.819Z,102791.00
2023-05-23T11:20:24.712Z,102795.56
2023-05-23T11:23:07.321Z,102796.41
2023-05-23T11:25:43.100Z,102800.88
2023-05-23T11:28:14.607Z,102803.59
2023-05-23T11:30:44.017Z,102808.72
2023-05-23T11:33:15.705Z,102814.47
2023-05-23T11:35:48.865Z,102814.41
2023-05-23T11:38:18.918Z,102812.06
2023-05-23T11:40:47.657Z,102810.88
2023-05-23T11:43:18.215Z,102813.16
2023-05-23T11:45:47.504Z,102813.88
2023-05-23T11:48:20.482Z,102811.22
2023-05-23T11:50:50.264Z,102815.59
2023-05-23T11:53:21.603Z,102808.19
2023-05-23T11:55:50.804Z,102807.88
2023-05-23T11:58:18.922Z,102805.34
2023-05-23T12:00:47.744Z,102804.66
2023-05-23T12:03:16.522Z,102805.03
2023-05-23T12:05:45.664Z,102799.50
2023-05-23T12:08:14.551Z,102797.50
2023-05-23T12:10:52.848Z,102804.97
2023-05-23T12:13:21.415Z,102806.97
2023-05-23T12:15:52.640Z,102803.28
2023-05-23T12:18:21.730Z,102802.44
2023-05-23T12:20:50.395Z,102810.38
2023-05-23T12:23:22.387Z,102809.00
2023-05-23T12:25:53.803Z,102808.16
2023-05-23T12:28:22.081Z,102808.31
2023-05-23T12:30:50.333Z,102808.66
2023-05-23T12:33:20.788Z,102802.41
2023-05-23T12:35:49.056Z,102796.34
2023-05-23T12:38:18.057Z,102807.66
2023-05-23T12:40:46.207Z,102814.91
2023-05-23T12:43:16.579Z,102809.34
2023-05-23T12:45:44.950Z,102815.91
2023-05-23T12:48:13.092Z,102809.34
2023-05-23T12:50:41.345Z,102814.38
2023-05-23T12:53:09.373Z,102812.03
2023-05-23T12:55:38.536Z,102812.91
2023-05-23T12:58:07.258Z,102806.47
2023-05-23T13:00:36.887Z,102813.84
2023-05-23T13:03:06.636Z,102810.22
2023-05-23T13:05:34.839Z,102805.84
2023-05-23T13:08:03.562Z,102811.94
2023-05-23T13:10:32.445Z,102816.31
2023-05-23T13:13:01.284Z,102817.34
2023-05-23T13:15:31.687Z,102804.31
2023-05-23T13:18:02.881Z,102793.66
2023-05-23T13:20:31.682Z,102801.22
2023-05-23T13:23:00.941Z,102803.00
2023-05-23T13:25:29.134Z,102797.13
2023-05-23T13:27:57.404Z,102800.28
2023-05-23T13:30:25.517Z,102796.59
2023-05-23T13:32:53.873Z,102796.34
2023-05-23T13:35:23.711Z,102805.69
2023-05-23T13:37:51.881Z,102798.56
2023-05-23T13:40:20.662Z,102802.31
2023-05-23T13:42:49.110Z,102792.56
2023-05-23T13:45:17.733Z,102790.75
2023-05-23T13:47:46.697Z,102788.34
2023-05-23T13:50:14.977Z,102787.50
2023-05-23T13:52:47.309Z,102790.88
2023-05-23T13:55:18.559Z,102783.44
2023-05-23T13:57:47.315Z,102788.47
2023-05-23T14:00:16.308Z,102778.59
2023-05-23T14:02:44.613Z,102776.41
2023-05-23T14:05:12.884Z,102767.91
2023-05-23T14:07:45.269Z,102768.47
2023-05-23T14:10:15.396Z,102770.03
2023-05-23T14:12:44.712Z,102771.63
2023-05-23T14:15:13.768Z,102770.97
2023-05-23T14:17:43.092Z,102772.03
2023-05-23T14:20:12.054Z,102771.47
2023-05-23T14:22:42.182Z,102772.25
2023-05-23T14:25:11.164Z,102762.41
2023-05-23T14:27:42.053Z,102771.44
2023-05-23T14:30:11.373Z,102765.06
2023-05-23T14:32:40.965Z,102760.81
2023-05-23T14:35:11.192Z,102771.16
2023-05-23T14:37:39.423Z,102763.88
2023-05-23T14:40:10.126Z,102762.81
2023-05-23T14:42:40.381Z,102759.72
2023-05-23T14:45:09.069Z,102762.88
2023-05-23T14:47:37.526Z,102769.47
2023-05-23T14:50:06.188Z,102770.50
2023-05-23T14:52:35.911Z,102776.72
2023-05-23T14:55:03.985Z,102762.88
2023-05-23T14:57:32.015Z,102767.44
2023-05-23T15:00:03.109Z,102758.63
2023-05-23T15:02:31.545Z,102757.25
2023-05-23T15:04:59.503Z,102756.78
2023-05-23T15:07:27.612Z,102760.28
2023-05-23T15:09:55.613Z,102764.09
2023-05-23T15:12:23.616Z,102760.72
2023-05-23T15:14:52.090Z,102766.91
2023-05-23T15:17:25.729Z,102763.09
2023-05-23T15:19:56.937Z,102772.09
2023-05-23T15:24:57.469Z,102777.31
2023-05-23T15:27:25.770Z,102771.25
2023-05-23T15:29:54.347Z,102765.53
2023-05-23T15:32:24.190Z,102769.63
2023-05-23T15:34:52.680Z,102763.03
2023-05-23T15:37:21.005Z,102764.25
2023-05-23T15:39:49.410Z,102771.44
2023-05-23T15:42:17.454Z,102769.47
2023-05-23T15:44:46.319Z,102766.00
2023-05-23T15:47:14.584Z,102760.41
2023-05-23T15:49:44.269Z,102765.34
2023-05-23T15:52:12.518Z,102762.41
2023-05-23T15:54:40.466Z,102757.53
2023-05-23T15:57:08.515Z,102760.25
2023-05-23T15:59:37.688Z,102754.75
2023-05-23T16:02:09.336Z,102762.53
2023-05-23T16:04:41.750Z,102755.94
2023-05-23T16:07:12.729Z,102755.13
2023-05-23T16:09:41.892Z,102752.63
2023-05-23T16:12:15.442Z,102754.91
2023-05-23T16:14:43.752Z,102747.22
2023-05-23T16:17:11.990Z,102741.06
2023-05-23T16:19:40.760Z,102733.16
2023-05-23T16:22:09.220Z,102736.13
2023-05-23T16:24:39.006Z,102741.09
2023-05-23T16:27:07.544Z,102744.03
2023-05-23T16:29:36.370Z,102742.97
2023-05-23T16:32:05.251Z,102733.72
2023-05-23T16:34:34.710Z,102736.88
2023-05-23T16:37:02.720Z,102738.34
2023-05-23T16:39:30.741Z,102745.25
2023-05-23T16:42:00.609Z,102736.88
2023-05-23T16:44:28.736Z,102743.84
2023-05-23T16:46:56.745Z,102747.78
2023-05-23T16:49:24.745Z,102747.78
2023-05-23T16:51:52.690Z,102742.03
2023-05-23T16:54:20.646Z,102746.16
2023-05-23T16:56:48.595Z,102742.59
2023-05-23T16:59:18.056Z,102745.59
2023-05-23T17:01:46.109Z,102742.88
2023-05-23T17:04:14.265Z,102746.00
2023-05-23T17:06:42.236Z,102743.66
2023-05-23T17:09:10.134Z,102748.81
2023-05-23T17:11:38.195Z,102752.97
2023-05-23T17:14:06.139Z,102752.38
2023-05-23T17:16:35.534Z,102753.97
2023-05-23T17:19:03.583Z,102757.63
2023-05-23T17:21:31.562Z,102744.16
2023-05-23T17:23:59.609Z,102743.22
2023-05-23T17:26:28.047Z,102747.63
2023-05-23T17:28:56.081Z,102743.59
2023-05-23T17:31:24.077Z,102735.47
2023-05-23T17:33:53.453Z,102743.63
2023-05-23T17:36:21.362Z,102738.25
2023-05-23T17:38:49.317Z,102747.16
2023-05-23T17:41:17.591Z,102747.19
2023-05-23T17:43:45.718Z,102748.75
2023-05-23T17:46:13.663Z,102742.72
2023-05-23T17:48:47.570Z,102744.25
2023-05-23T17:51:17.550Z,102743.88
2023-05-23T17:53:45.485Z,102751.91
2023-05-23T17:56:13.434Z,102752.16
2023-05-23T17:58:43.898Z,102744.66
2023-05-23T18:01:13.640Z,102742.84
2023-05-23T18:03:41.772Z,102742.50
2023-05-23T18:06:09.709Z,102741.25
2023-05-23T18:08:39.109Z,102733.00
2023-05-23T18:11:07.071Z,102737.53
2023-05-23T18:13:35.326Z,102731.63
2023-05-23T18:16:03.235Z,102723.72
2023-05-23T18:18:31.670Z,102732.97
2023-05-23T18:20:59.740Z,102741.38
2023-05-23T18:23:27.742Z,102732.63
2023-05-23T18:25:57.763Z,102736.16
2023-05-23T18:28:25.910Z,102734.28
2023-05-23T18:30:53.812Z,102744.34
2023-05-23T18:33:22.060Z,102735.72
2023-05-23T18:35:51.108Z,102737.84
2023-05-23T18:38:19.130Z,102734.72
2023-05-23T18:40:47.129Z,102738.38
2023-05-23T18:43:17.593Z,102740.84
2023-05-23T18:45:45.710Z,102742.25
2023-05-23T18:48:13.665Z,102756.34
2023-05-23T18:50:41.825Z,102750.47
2023-05-23T18:53:10.062Z,102751.94
2023-05-23T18:55:38.472Z,102747.84
2023-05-23T18:58:06.421Z,102751.41
2023-05-23T19:00:35.766Z,102738.72
2023-05-23T19:03:03.843Z,102744.69
2023-05-23T19:05:31.880Z,102741.31
2023-05-23T19:07:59.937Z,102739.09
2023-05-23T19:10:27.847Z,102751.84
2023-05-23T19:12:55.827Z,102739.09
2023-05-23T19:15:24.290Z,102739.53
2023-05-23T19:17:53.772Z,102747.63
2023-05-23T19:20:22.079Z,102749.00
2023-05-23T19:22:51.500Z,102752.41
2023-05-23T19:25:20.928Z,102749.31
2023-05-23T19:27:48.888Z,102745.94
2023-05-23T19:30:17.132Z,102747.78
2023-05-23T19:32:45.231Z,102740.88
2023-05-23T19:35:16.871Z,102756.56
2023-05-23T19:37:45.416Z,102741.66
2023-05-23T19:40:15.119Z,102745.19
2023-05-23T19:42:43.188Z,102755.97
2023-05-23T19:45:12.238Z,102745.56
2023-05-23T19:47:40.285Z,102744.00
2023-05-23T19:50:10.274Z,102753.81
2023-05-23T19:52:39.564Z,102760.97
2023-05-23T19:55:08.443Z,102756.34
2023-05-23T19:57:36.436Z,102752.41
2023-05-23T20:00:05.633Z,102754.41
2023-05-23T20:02:34.261Z,102754.00
2023-05-23T20:05:02.220Z,102754.28
2023-05-23T20:07:30.617Z,102759.25
2023-05-23T20:09:59.915Z,102757.81
2023-05-23T20:12:27.892Z,102762.78
2023-05-23T20:14:55.834Z,102766.13
2023-05-23T20:17:23.855Z,102767.16
2023-05-23T20:19:51.816Z,102764.47
2023-05-23T20:22:19.803Z,102774.50
2023-05-23T20:24:47.753Z,102776.75
2023-05-23T20:27:17.050Z,102766.31
2023-05-23T20:29:45.100Z,102777.31
2023-05-23T20:32:13.011Z,102773.09
2023-05-23T20:34:41.388Z,102773.22
2023-05-23T20:37:09.308Z,102780.16
2023-05-23T20:39:37.579Z,102779.31
2023-05-23T20:42:06.233Z,102782.97
2023-05-23T20:44:37.771Z,102782.97
2023-05-23T20:47:06.745Z,102784.38
2023-05-23T20:49:34.927Z,102787.22
2023-05-23T20:52:02.972Z,102779.88
2023-05-23T20:54:30.901Z,102782.53
2023-05-23T20:56:58.945Z,102797.63
2023-05-23T20:59:26.891Z,102799.19
2023-05-23T21:01:56.398Z,102793.38
2023-05-23T21:04:24.372Z,102796.34
2023-05-23T21:06:52.301Z,102804.38
2023-05-23T21:09:20.175Z,102801.78
2023-05-23T21:11:48.330Z,102800.25
2023-05-23T21:14:16.302Z,102796.44
2023-05-23T21:16:44.310Z,102805.31
2023-05-23T21:19:13.683Z,102810.25
2023-05-23T21:21:41.697Z,102812.47
2023-05-23T21:24:09.618Z,102814.44
2023-05-23T21:26:37.534Z,102814.81
2023-05-23T21:29:05.488Z,102809.88
2023-05-23T21:31:41.490Z,102809.16
2023-05-23T21:34:22.207Z,102796.31
2023-05-23T21:36:53.036Z,102808.84
2023-05-23T21:39:21.006Z,102809.81
2023-05-23T21:41:48.928Z,102809.09
2023-05-23T21:44:17.701Z,102808.09
2023-05-23T21:46:46.128Z,102802.47
2023-05-23T21:49:14.353Z,102805.16
2023-05-23T21:51:42.304Z,102813.47
2023-05-23T21:54:11.654Z,102803.72
2023-05-23T21:56:39.544Z,102803.28
2023-05-23T21:59:07.473Z,102809.03
2023-05-23T22:01:35.665Z,102803.81
2023-05-23T22:04:03.842Z,102805.78
2023-05-23T22:06:33.248Z,102808.16
2023-05-23T22:09:01.709Z,102808.81
2023-05-23T22:11:34.010Z,102799.69
2023-05-23T22:14:02.275Z,102797.56
2023-05-23T22:16:32.876Z,102793.19
2023-05-23T22:19:02.117Z,102800.81
2023-05-23T22:21:30.249Z,102795.44
2023-05-23T22:23:58.726Z,102797.16
2023-05-23T22:26:26.996Z,102795.19
2023-05-23T22:28:56.385Z,102789.72
2023-05-23T22:31:24.987Z,102788.47
2023-05-23T22:33:53.006Z,102791.03
2023-05-23T22:36:21.957Z,102787.25
2023-05-23T22:38:49.981Z,102785.41
2023-05-23T22:41:17.930Z,102783.44
2023-05-23T22:43:46.828Z,102779.06
2023-05-23T22:46:16.442Z,102789.09
2023-05-23T22:48:45.100Z,102780.03
2023-05-23T22:51:14.622Z,102780.78
2023-05-23T22:53:43.312Z,102784.44
2023-05-23T22:56:11.374Z,102779.56
2023-05-23T22:58:39.279Z,102776.59
2023-05-23T23:01:07.338Z,102774.31
2023-05-23T23:03:36.639Z,102770.47
2023-05-23T23:06:06.285Z,102767.31
2023-05-23T23:08:34.585Z,102768.81
2023-05-23T23:11:02.595Z,102760.34
2023-05-23T23:13:30.775Z,102765.97
2023-05-23T23:15:59.644Z,102759.16
2023-05-23T23:18:27.965Z,102760.16
2023-05-23T23:20:57.237Z,102758.72
2023-05-23T23:23:25.212Z,102754.59
2023-05-23T23:25:53.155Z,102754.47
2023-05-23T23:28:21.228Z,102756.28
2023-05-23T23:30:49.326Z,102762.16
2023-05-23T23:33:17.408Z,102774.47
2023-05-23T23:35:48.500Z,102769.66
2023-05-23T23:38:18.060Z,102775.41
2023-05-23T23:40:45.974Z,102775.75
2023-05-23T23:43:14.093Z,102774.06
2023-05-23T23:45:42.360Z,102780.88
2023-05-23T23:48:10.381Z,102780.91
2023-05-23T23:50:38.319Z,102779.72
2023-05-23T23:53:06.533Z,102787.00
2023-05-23T23:55:35.857Z,102785.78
2023-05-23T23:58:03.808Z,102783.25
